Time;durP1;ratioP1;P1;durP2;ratioP2;P2;SDS_P1;SDS_P2;PMS_P1;PMS_P2;Temp;Humidity;BMP_temperature;BMP_pressure;BME280_temperature;BME280_humidity;BME280_pressure;Samples;Min_cycle;Max_cycle;Signal;HPM_P1;HPM_P2
2022/04/24 00:01:26;;;;;;;;;;;;;;;;;;4391592;32;20100;-78
2022/04/24 00:03:51;;;;;;;8.38;5.37;;;;;;;;;;4391901;32;20019;-77
2022/04/24 00:06:18;;;;;;;;;;;;;;;;;;4404497;32;20078;-78
2022/04/24 00:08:44;;;;;;;8.90;5.72;;;;;;;;;;4407357;32;19934;-78
2022/04/24 00:11:09;;;;;;;;;;;;;;;;;;4407546;32;20076;-77
2022/04/24 00:13:39;;;;;;;7.18;5.45;;;;;;;;;;4386731;32;19956;-77
2022/04/24 00:16:06;;;;;;;6.32;4.95;;;;;;;;;;4392510;32;20044;-77
2022/04/24 00:18:31;;;;;;;6.70;5.62;;;;;;;;;;4377990;32;20026;-78
2022/04/24 00:20:56;;;;;;;8.20;6.10;;;;;;;;;;4392153;32;20459;-77
2022/04/24 00:23:22;;;;;;;;;;;;;;;;;;4392428;32;20381;-77
2022/04/24 00:25:47;;;;;;;8.20;5.82;;;;;;;;;;4391991;32;19977;-77
2022/04/24 00:28:12;;;;;;;;;;;;;;;;;;4392021;32;20148;-79
2022/04/24 00:30:37;;;;;;;7.78;5.50;;;;;;;;;;4377864;32;19972;-77
2022/04/24 00:33:03;;;;;;;7.55;5.75;;;;;;;;;;4391637;32;20023;-77
2022/04/24 00:35:30;;;;;;;12.70;6.35;;;;;;;;;;4392013;32;20114;-77
2022/04/24 00:37:56;;;;;;;7.75;5.82;;;;;;;;;;4409922;27;20074;-69
2022/04/24 00:40:21;;;;;;;6.93;5.82;;;;;;;;;;4415757;32;20431;-69
2022/04/24 00:42:46;;;;;;;;;;;;;;;;;;4422277;32;20121;-70
2022/04/24 00:45:11;;;;;;;7.03;5.03;;;;;;;;;;4420442;32;19936;-69
2022/04/24 00:47:36;;;;;;;;;;;;;;;;;;4421180;32;20155;-69
2022/04/24 00:50:02;;;;;;;7.68;6.80;;;;;;;;;;4421493;32;19964;-69
2022/04/24 00:52:27;;;;;;;;;;;;;;;;;;4422624;32;20117;-69
2022/04/24 00:54:52;;;;;;;6.97;6.18;;;;;;;;;;4421077;32;19945;-69
2022/04/24 00:57:17;;;;;;;;;;;;;;;;;;4421352;32;20030;-69
2022/04/24 00:59:42;;;;;;;6.90;5.85;;;;;;;;;;4420061;32;19941;-70
2022/04/24 01:02:08;;;;;;;;;;;;;;;;;;4423192;32;20057;-70
2022/04/24 01:04:34;;;;;;;7.57;6.50;;;;;;;;;;4421321;32;19941;-69
2022/04/24 01:06:59;;;;;;;9.32;7.20;;;;;;;;;;4421811;32;20167;-69
2022/04/24 01:09:25;;;;;;;;;;;;;;;;;;4420917;32;20030;-69
2022/04/24 01:11:51;;;;;;;8.23;6.65;;;;;;;;;;4420477;32;19974;-69
2022/04/24 01:14:17;;;;;;;9.43;7.28;;;;;;;;;;4422587;32;20499;-69
2022/04/24 01:16:43;;;;;;;11.95;7.78;;;;;;;;;;4421729;32;20097;-69
2022/04/24 01:19:08;;;;;;;12.27;7.45;;;;;;;;;;4418370;32;20030;-69
2022/04/24 01:21:33;;;;;;;;;;;;;;;;;;4406488;32;20103;-68
2022/04/24 01:23:59;;;;;;;9.05;7.75;;;;;;;;;;4421223;32;19948;-69
2022/04/24 01:26:24;;;;;;;;;;;;;;;;;;4422861;32;20018;-69
2022/04/24 01:28:49;;;;;;;12.07;8.25;;;;;;;;;;4421576;32;19974;-68
2022/04/24 01:31:14;;;;;;;;;;;;;;;;;;4421898;32;20148;-68
2022/04/24 01:33:40;;;;;;;12.25;10.07;;;;;;;;;;4421103;32;19934;-68
2022/04/24 01:36:05;;;;;;;;;;;;;;;;;;4410086;32;20145;-68
2022/04/24 01:38:30;;;;;;;10.10;8.50;;;;;;;;;;4405685;32;19942;-69
2022/04/24 01:40:55;;;;;;;;;;;;;;;;;;4406599;32;20041;-68
2022/04/24 01:43:20;;;;;;;13.98;9.20;;;;;;;;;;4406192;32;19937;-69
2022/04/24 01:45:45;;;;;;;;;;;;;;;;;;4406346;32;20196;-69
2022/04/24 01:48:11;;;;;;;10.75;9.05;;;;;;;;;;4407637;32;19995;-67
2022/04/24 01:50:36;;;;;;;;;;;;;;;;;;4418920;32;20066;-69
2022/04/24 01:53:01;;;;;;;12.80;9.32;;;;;;;;;;4420978;32;19975;-69
2022/04/24 01:55:26;;;;;;;;;;;;;;;;;;4420220;32;20030;-70
2022/04/24 01:57:52;;;;;;;14.80;9.63;;;;;;;;;;4421094;32;19956;-69
2022/04/24 02:00:17;;;;;;;;;;;;;;;;;;4421428;32;20074;-70
2022/04/24 02:02:42;;;;;;;13.18;10.68;;;;;;;;;;4419592;32;20274;-69
2022/04/24 02:05:07;;;;;;;;;;;;;;;;;;4420286;32;20026;-70
2022/04/24 02:07:32;;;;;;;13.90;11.10;;;;;;;;;;4420914;32;19984;-70
2022/04/24 02:09:57;;;;;;;;;;;;;;;;;;4421629;32;20438;-70
2022/04/24 02:12:23;;;;;;;19.60;11.23;;;;;;;;;;4420910;32;19933;-70
2022/04/24 02:14:48;;;;;;;;;;;;;;;;;;4422180;32;20391;-70
2022/04/24 02:17:13;;;;;;;16.15;11.75;;;;;;;;;;4420720;32;19974;-69
2022/04/24 02:19:38;;;;;;;;;;;;;;;;;;4420985;32;20068;-69
2022/04/24 02:22:03;;;;;;;16.48;13.05;;;;;;;;;;4421491;32;19933;-69
2022/04/24 02:24:28;;;;;;;;;;;;;;;;;;4422315;32;20068;-69
2022/04/24 02:26:54;;;;;;;17.55;13.20;;;;;;;;;;4421131;32;19966;-69
2022/04/24 02:29:19;;;;;;;;;;;;;;;;;;4420478;32;20345;-69
2022/04/24 02:31:44;;;;;;;18.45;13.75;;;;;;;;;;4420405;32;19937;-69
2022/04/24 02:34:10;;;;;;;;;;;;;;;;;;4420923;32;20021;-69
2022/04/24 02:36:35;;;;;;;16.73;13.32;;;;;;;;;;4420606;32;19937;-69
2022/04/24 02:39:00;;;;;;;;;;;;;;;;;;4406379;32;20366;-69
2022/04/24 02:41:27;;;;;;;16.50;13.70;;;;;;;;;;4420844;32;19995;-69
2022/04/24 02:43:52;;;;;;;17.12;14.27;;;;;;;;;;4418754;32;20022;-68
2022/04/24 02:46:17;;;;;;;;;;;;;;;;;;4420348;32;20022;-69
2022/04/24 02:48:42;;;;;;;20.92;14.98;;;;;;;;;;4420022;32;19959;-69
2022/04/24 02:51:07;;;;;;;;;;;;;;;;;;4420256;32;20025;-70
2022/04/24 02:53:33;;;;;;;19.50;14.90;;;;;;;;;;4422632;32;19993;-69
2022/04/24 02:55:58;;;;;;;;;;;;;;;;;;4421444;32;20041;-68
2022/04/24 02:58:23;;;;;;;22.90;15.20;;;;;;;;;;4419649;32;19933;-68
2022/04/24 03:00:51;;;;;;;;;;;;;;;;;;4421975;32;20485;-68
2022/04/24 03:03:18;;;;;;;20.80;14.27;;;;;;;;;;4421405;32;19983;-68
2022/04/24 03:05:45;;;;;;;21.15;15.40;;;;;;;;;;4418258;32;20091;-69
2022/04/24 03:08:10;;;;;;;19.05;15.13;;;;;;;;;;4419174;32;20060;-69
2022/04/24 03:10:35;;;;;;;;;;;;;;;;;;4419135;32;20030;-69
2022/04/24 03:13:01;;;;;;;18.02;14.82;;;;;;;;;;4419545;32;19933;-68
2022/04/24 03:15:26;;;;;;;;;;;;;;;;;;4420025;32;20100;-69
2022/04/24 03:17:54;;;;;;;20.62;14.57;;;;;;;;;;4420965;32;19933;-69
2022/04/24 03:20:19;;;;;;;18.60;14.50;;;;;;;;;;4420480;32;20402;-69
2022/04/24 03:22:44;;;;;;;;;;;;;;;;;;4420676;32;20026;-69
2022/04/24 03:25:10;;;;;;;18.23;13.98;;;;;;;;;;4419541;32;19947;-69
2022/04/24 03:27:35;;;;;;;;;;;;;;;;;;4420239;32;20035;-68
2022/04/24 03:30:00;;;;;;;18.92;13.38;;;;;;;;;;4419990;32;19941;-69
2022/04/24 03:32:25;;;;;;;;;;;;;;;;;;4419950;32;20037;-69
2022/04/24 03:34:51;;;;;;;17.75;13.18;;;;;;;;;;4421119;32;19948;-68
2022/04/24 03:37:16;;;;;;;;;;;;;;;;;;4420428;32;20149;-68
2022/04/24 03:39:41;;;;;;;16.33;13.23;;;;;;;;;;4419315;32;20303;-68
2022/04/24 03:42:06;;;;;;;;;;;;;;;;;;4421464;32;20094;-68
2022/04/24 03:44:32;;;;;;;16.62;12.35;;;;;;;;;;4418795;32;20326;-68
2022/04/24 03:46:58;;;;;;;;;;;;;;;;;;4420404;32;20127;-69
2022/04/24 03:49:23;;;;;;;15.18;11.25;;;;;;;;;;4421288;32;19970;-70
2022/04/24 03:51:48;;;;;;;;;;;;;;;;;;4422432;32;20029;-69
2022/04/24 03:54:14;;;;;;;16.83;12.15;;;;;;;;;;4421014;32;19982;-69
2022/04/24 03:56:39;;;;;;;;;;;;;;;;;;4421514;32;20075;-69
2022/04/24 03:59:04;;;;;;;15.80;11.38;;;;;;;;;;4423065;32;19967;-69
2022/04/24 04:01:29;;;;;;;;;;;;;;;;;;4423641;32;20048;-69
2022/04/24 04:03:56;;;;;;;19.02;10.98;;;;;;;;;;4423519;32;19968;-69
2022/04/24 04:06:21;;;;;;;15.45;11.50;;;;;;;;;;4420829;32;20019;-69
2022/04/24 04:08:46;;;;;;;;;;;;;;;;;;4422467;32;20041;-70
2022/04/24 04:11:12;;;;;;;14.90;10.85;;;;;;;;;;4422547;32;19998;-70
2022/04/24 04:13:37;;;;;;;;;;;;;;;;;;4421199;32;20018;-69
2022/04/24 04:16:02;;;;;;;11.48;10.23;;;;;;;;;;4420835;32;19948;-69
2022/04/24 04:18:27;;;;;;;;;;;;;;;;;;4423950;32;20138;-69
2022/04/24 04:20:52;;;;;;;15.98;11.85;;;;;;;;;;4422932;32;19940;-68
2022/04/24 04:23:18;;;;;;;;;;;;;;;;;;4422246;32;20022;-69
2022/04/24 04:25:43;;;;;;;14.87;10.55;;;;;;;;;;4422020;32;20254;-68
2022/04/24 04:28:08;;;;;;;;;;;;;;;;;;4423425;32;20099;-69
2022/04/24 04:30:33;;;;;;;12.88;10.50;;;;;;;;;;4421643;32;19979;-69
2022/04/24 04:32:58;;;;;;;;;;;;;;;;;;4422443;32;20079;-69
2022/04/24 04:35:23;;;;;;;18.60;11.30;;;;;;;;;;4421607;32;19937;-70
2022/04/24 04:37:49;;;;;;;;;;;;;;;;;;4421643;32;20401;-69
2022/04/24 04:40:14;;;;;;;11.60;9.55;;;;;;;;;;4422426;32;19955;-69
2022/04/24 04:42:39;;;;;;;;;;;;;;;;;;4422208;32;20044;-69
2022/04/24 04:45:06;;;;;;;12.93;9.68;;;;;;;;;;4421868;32;19937;-69
2022/04/24 04:47:31;;;;;;;14.15;11.10;;;;;;;;;;4421283;32;20094;-70
2022/04/24 04:49:56;;;;;;;;;;;;;;;;;;4422223;32;20459;-70
2022/04/24 04:52:22;;;;;;;11.82;9.55;;;;;;;;;;4420368;32;19959;-69
2022/04/24 04:54:47;;;;;;;;;;;;;;;;;;4420666;32;20026;-70
2022/04/24 04:57:12;;;;;;;12.50;9.10;;;;;;;;;;4420749;32;19967;-69
2022/04/24 04:59:37;;;;;;;;;;;;;;;;;;4420244;32;20060;-69
2022/04/24 05:02:03;;;;;;;16.00;10.13;;;;;;;;;;4420587;32;19971;-69
2022/04/24 05:04:28;;;;;;;;;;;;;;;;;;4423335;32;20168;-69
2022/04/24 05:06:53;;;;;;;12.65;9.40;;;;;;;;;;4420822;32;19937;-69
2022/04/24 05:09:18;;;;;;;;;;;;;;;;;;4420664;32;20384;-69
2022/04/24 05:11:43;;;;;;;15.93;9.77;;;;;;;;;;4419280;32;19940;-69
2022/04/24 05:14:09;;;;;;;13.65;10.60;;;;;;;;;;4420207;32;20022;-70
2022/04/24 05:16:34;;;;;;;;;;;;;;;;;;4421434;32;20025;-69
2022/04/24 05:18:59;;;;;;;14.35;9.60;;;;;;;;;;4421006;32;20295;-69
2022/04/24 05:21:24;;;;;;;;;;;;;;;;;;4419455;32;20122;-69
2022/04/24 05:23:49;;;;;;;14.00;9.65;;;;;;;;;;4421014;32;19953;-69
2022/04/24 05:26:14;;;;;;;;;;;;;;;;;;4422874;32;20054;-69
2022/04/24 05:28:40;;;;;;;12.70;8.88;;;;;;;;;;4422575;32;19937;-70
2022/04/24 05:31:07;;;;;;;;;;;;;;;;;;4422156;32;20545;-69
2022/04/24 05:33:33;;;;;;;;;;;;;;;;;;4421707;32;19948;-69
2022/04/24 05:35:58;;;;;;;11.68;8.95;;;;;;;;;;4421988;32;19952;-69
2022/04/24 05:38:23;;;;;;;;;;;;;;;;;;4421486;32;20072;-69
2022/04/24 05:40:48;;;;;;;14.38;9.00;;;;;;;;;;4420734;32;20380;-69
2022/04/24 05:43:13;;;;;;;;;;;;;;;;;;4421121;32;20034;-69
2022/04/24 05:45:38;;;;;;;12.10;9.35;;;;;;;;;;4421151;32;19933;-69
2022/04/24 05:48:03;;;;;;;;;;;;;;;;;;4420604;32;20017;-69
2022/04/24 05:50:28;;;;;;;9.93;8.48;;;;;;;;;;4422220;32;20259;-69
2022/04/24 05:52:55;;;;;;;10.32;8.76;;;;;;;;;;4421080;32;20495;-70
2022/04/24 05:55:20;;;;;;;14.73;7.97;;;;;;;;;;4416601;32;20061;-68
2022/04/24 05:57:49;;;;;;;;;;;;;;;;;;4411643;32;20080;-68
2022/04/24 06:00:16;;;;;;;11.43;8.68;;;;;;;;;;4418686;32;19960;-70
2022/04/24 06:02:41;;;;;;;11.45;8.63;;;;;;;;;;4418947;32;20131;-69
2022/04/24 06:05:06;;;;;;;;;;;;;;;;;;4414909;32;20064;-69
2022/04/24 06:07:31;;;;;;;12.25;8.23;;;;;;;;;;4420884;32;19937;-69
2022/04/24 06:09:57;;;;;;;;;;;;;;;;;;4404126;32;20144;-70
2022/04/24 06:12:22;;;;;;;11.07;7.35;;;;;;;;;;4419375;32;19941;-70
2022/04/24 06:14:47;;;;;;;;;;;;;;;;;;4420277;32;20328;-69
2022/04/24 06:17:12;;;;;;;10.27;7.95;;;;;;;;;;4420920;32;19951;-70
2022/04/24 06:19:37;;;;;;;11.55;7.87;;;;;;;;;;4420841;32;20091;-69
2022/04/24 06:22:02;;;;;;;;;;;;;;;;;;4421794;32;20025;-69
2022/04/24 06:24:28;;;;;;;10.88;8.63;;;;;;;;;;4411917;32;20010;-69
2022/04/24 06:26:53;;;;;;;;;;;;;;;;;;4420724;32;20152;-69
2022/04/24 06:29:18;;;;;;;10.43;8.65;;;;;;;;;;4420470;32;19944;-69
2022/04/24 06:31:43;;;;;;;;;;;;;;;;;;4419472;32;20022;-69
2022/04/24 06:34:08;;;;;;;11.95;8.25;;;;;;;;;;4411654;32;19997;-69
2022/04/24 06:36:33;;;;;;;;;;;;;;;;;;4421488;32;20117;-69
2022/04/24 06:39:00;;;;;;;10.70;8.13;;;;;;;;;;4419907;32;19937;-69
2022/04/24 06:41:25;;;;;;;10.27;7.72;;;;;;;;;;4412321;32;20083;-69
2022/04/24 06:43:50;;;;;;;;;;;;;;;;;;4418983;32;20026;-69
2022/04/24 06:46:16;;;;;;;9.88;7.80;;;;;;;;;;4419760;32;19933;-69
2022/04/24 06:48:41;;;;;;;;;;;;;;;;;;4419816;32;20030;-70
2022/04/24 06:51:06;;;;;;;13.32;7.70;;;;;;;;;;4419448;32;20004;-70
2022/04/24 06:53:31;;;;;;;;;;;;;;;;;;4421488;32;20017;-70
2022/04/24 06:55:56;;;;;;;10.15;7.57;;;;;;;;;;4421278;32;20020;-70
2022/04/24 06:58:24;;;;;;;;;;;;;;;;;;4418976;32;20105;-70
2022/04/24 07:00:49;;;;;;;10.23;7.50;;;;;;;;;;4420652;32;19945;-70
2022/04/24 07:03:14;;;;;;;;;;;;;;;;;;4419514;32;20079;-69
2022/04/24 07:05:40;;;;;;;9.73;8.38;;;;;;;;;;4420361;32;20334;-69
2022/04/24 07:08:05;;;;;;;;;;;;;;;;;;4420114;32;20022;-68
2022/04/24 07:10:31;;;;;;;11.18;7.53;;;;;;;;;;4418062;32;19945;-69
2022/04/24 07:12:56;;;;;;;;;;;;;;;;;;4420300;32;20510;-69
2022/04/24 07:15:22;;;;;;;9.85;7.45;;;;;;;;;;4418759;32;19937;-69
2022/04/24 07:17:48;;;;;;;14.10;7.65;;;;;;;;;;4414112;32;20161;-69
2022/04/24 07:20:13;;;;;;;;;;;;;;;;;;4419898;32;20052;-69
2022/04/24 07:22:48;;;;;;;11.15;7.95;;;;;;;;;;4421859;32;19933;-69
2022/04/24 07:25:14;;;;;;;11.93;7.72;;;;;;;;;;4423204;32;20190;-70
2022/04/24 07:27:40;;;;;;;8.43;7.53;;;;;;;;;;4422606;32;20041;-70
2022/04/24 07:30:05;;;;;;;;;;;;;;;;;;4422982;32;20026;-69
2022/04/24 07:32:37;;;;;;;9.18;7.65;;;;;;;;;;4419327;32;19937;-70
2022/04/24 07:35:02;;;;;;;10.13;7.57;;;;;;;;;;4422762;32;20022;-70
2022/04/24 07:37:27;;;;;;;12.18;7.95;;;;;;;;;;4422215;32;20328;-70
2022/04/24 07:39:52;;;;;;;10.98;7.70;;;;;;;;;;4420935;32;20030;-69
2022/04/24 07:42:19;;;;;;;;;;;;;;;;;;4423644;32;20137;-69
2022/04/24 07:44:44;;;;;;;8.13;7.03;;;;;;;;;;4422007;32;20359;-70
2022/04/24 07:47:09;;;;;;;;;;;;;;;;;;4423725;32;20014;-68
2022/04/24 07:49:34;;;;;;;12.57;7.72;;;;;;;;;;4419025;32;19937;-69
2022/04/24 07:51:59;;;;;;;10.88;7.43;;;;;;;;;;4422529;32;20026;-69
2022/04/24 07:54:24;;;;;;;;;;;;;;;;;;4422671;32;20014;-69
2022/04/24 07:56:50;;;;;;;9.38;7.62;;;;;;;;;;4422829;32;19937;-70
2022/04/24 07:59:15;;;;;;;;;;;;;;;;;;4422606;32;20453;-69
2022/04/24 08:01:40;;;;;;;10.20;7.37;;;;;;;;;;4422051;32;20267;-69
2022/04/24 08:04:06;;;;;;;;;;;;;;;;;;4420764;32;20065;-69
2022/04/24 08:06:31;;;;;;;10.15;7.55;;;;;;;;;;4421301;32;20003;-69
2022/04/24 08:08:56;;;;;;;;;;;;;;;;;;4420532;32;20076;-69
2022/04/24 08:11:21;;;;;;;8.13;7.32;;;;;;;;;;4420651;32;19980;-70
2022/04/24 08:13:46;;;;;;;;;;;;;;;;;;4421974;32;20054;-69
2022/04/24 08:16:11;;;;;;;8.25;7.45;;;;;;;;;;4423149;32;19941;-69
2022/04/24 08:18:36;;;;;;;;;;;;;;;;;;4420697;32;20096;-68
2022/04/24 08:21:02;;;;;;;12.00;7.32;;;;;;;;;;4420033;32;19971;-70
2022/04/24 08:23:27;;;;;;;;;;;;;;;;;;4421796;32;20100;-69
2022/04/24 08:25:52;;;;;;;9.10;7.73;;;;;;;;;;4421134;32;20254;-69
2022/04/24 08:28:18;;;;;;;;;;;;;;;;;;4422698;32;20144;-68
2022/04/24 08:30:44;;;;;;;9.50;7.47;;;;;;;;;;4420810;32;19938;-69
2022/04/24 08:33:10;;;;;;;9.27;7.50;;;;;;;;;;4421333;32;20324;-69
2022/04/24 08:35:35;;;;;;;;;;;;;;;;;;4420460;32;20042;-69
2022/04/24 08:38:00;;;;;;;15.20;8.63;;;;;;;;;;4421419;32;19944;-68
2022/04/24 08:40:25;;;;;;;;;;;;;;;;;;4421437;32;20135;-69
2022/04/24 08:42:52;;;;;;;10.00;7.50;;;;;;;;;;4419604;32;19937;-69
2022/04/24 08:45:17;;;;;;;11.38;7.72;;;;;;;;;;4419921;32;20050;-69
2022/04/24 08:47:43;;;;;;;9.48;7.55;;;;;;;;;;4421670;32;20078;-69
2022/04/24 08:50:08;;;;;;;;;;;;;;;;;;4419071;32;20034;-71
2022/04/24 08:52:33;;;;;;;10.55;7.87;;;;;;;;;;4420288;32;19937;-69
2022/04/24 08:54:59;;;;;;;;;;;;;;;;;;4421959;32;20168;-72
2022/04/24 08:57:29;;;;;;;9.98;8.10;;;;;;;;;;4421874;32;20018;-73
2022/04/24 08:59:55;;;;;;;9.50;8.18;;;;;;;;;;4420860;32;20018;-71
2022/04/24 09:02:20;;;;;;;9.35;7.62;;;;;;;;;;4419116;32;20094;-72
2022/04/24 09:04:45;;;;;;;;;;;;;;;;;;4417809;32;20029;-72
2022/04/24 09:07:17;;;;;;;8.73;7.72;;;;;;;;;;4422018;32;19933;-72
2022/04/24 09:09:44;;;;;;;11.18;7.57;;;;;;;;;;4421741;32;20034;-71
2022/04/24 09:12:09;;;;;;;10.40;8.27;;;;;;;;;;4420401;32;20094;-72
2022/04/24 09:14:35;;;;;;;9.38;7.35;;;;;;;;;;4421319;32;20014;-71
2022/04/24 09:17:01;;;;;;;;;;;;;;;;;;4421143;32;20082;-71
2022/04/24 09:19:26;;;;;;;13.68;7.60;;;;;;;;;;4421200;32;19963;-72
2022/04/24 09:22:02;;;;;;;8.50;7.60;;;;;;;;;;4422207;32;20399;-72
2022/04/24 09:24:37;;;;;;;8.88;7.45;;;;;;;;;;4422102;32;20069;-72
2022/04/24 09:27:02;;;;;;;9.02;7.40;;;;;;;;;;4422046;32;20399;-72
2022/04/24 09:29:27;;;;;;;14.13;7.25;;;;;;;;;;4419412;32;20014;-72
2022/04/24 09:31:53;;;;;;;;;;;;;;;;;;4419516;32;20018;-72
2022/04/24 09:34:19;;;;;;;8.82;7.00;;;;;;;;;;4420937;32;19955;-70
2022/04/24 09:36:45;;;;;;;9.40;7.07;;;;;;;;;;4420757;32;20064;-71
2022/04/24 09:39:10;;;;;;;8.15;7.30;;;;;;;;;;4420072;32;20034;-71
2022/04/24 09:41:36;;;;;;;9.48;7.80;;;;;;;;;;4420030;32;21277;-72
2022/04/24 09:44:01;;;;;;;;;;;;;;;;;;4405304;32;20018;-72
2022/04/24 09:46:29;;;;;;;11.50;8.57;;;;;;;;;;4406800;32;19972;-72
2022/04/24 09:48:58;;;;;;;8.73;7.35;;;;;;;;;;4405512;32;20018;-71
2022/04/24 09:51:24;;;;;;;10.73;7.43;;;;;;;;;;4408141;32;20037;-72
2022/04/24 09:53:50;;;;;;;10.18;7.30;;;;;;;;;;4420409;32;20335;-72
2022/04/24 09:56:16;;;;;;;10.20;8.00;;;;;;;;;;4419800;32;20074;-70
2022/04/24 09:58:41;;;;;;;8.45;7.55;;;;;;;;;;4420525;32;20378;-71
2022/04/24 10:01:08;;;;;;;10.45;7.20;;;;;;;;;;4420521;32;20379;-71
2022/04/24 10:03:35;;;;;;;13.18;7.90;;;;;;;;;;4421705;32;20075;-71
2022/04/24 10:06:02;;;;;;;8.73;7.85;;;;;;;;;;4418890;32;20021;-71
2022/04/24 10:08:27;;;;;;;14.87;8.32;;;;;;;;;;4420131;32;20134;-72
2022/04/24 10:10:53;;;;;;;9.32;7.12;;;;;;;;;;4418988;32;20030;-72
2022/04/24 10:13:18;;;;;;;;;;;;;;;;;;4418590;32;20046;-73
2022/04/24 10:15:45;;;;;;;9.35;7.85;;;;;;;;;;4420178;32;19941;-72
2022/04/24 10:18:25;;;;;;;10.00;7.20;;;;;;;;;;4419985;32;20480;-73
2022/04/24 10:21:05;;;;;;;10.15;7.40;;;;;;;;;;4421622;32;20055;-73
2022/04/24 10:23:34;;;;;;;8.10;7.05;;;;;;;;;;4421324;32;20018;-71
2022/04/24 10:26:00;;;;;;;9.43;8.02;;;;;;;;;;4420190;32;20018;-71
2022/04/24 10:28:36;;;;;;;11.18;8.15;;;;;;;;;;4420021;32;20022;-72
2022/04/24 10:31:01;;;;;;;;;;;;;;;;;;4420677;32;20347;-71
2022/04/24 10:33:28;;;;;;;9.80;8.00;;;;;;;;;;4419910;32;20035;-72
2022/04/24 10:35:53;;;;;;;11.70;7.82;;;;;;;;;;4419765;32;20079;-72
2022/04/24 10:38:20;;;;;;;11.27;7.25;;;;;;;;;;4419954;32;20026;-72
2022/04/24 10:40:56;;;;;;;10.98;8.07;;;;;;;;;;4419549;32;20030;-72
2022/04/24 10:43:21;;;;;;;10.52;8.40;;;;;;;;;;4405775;32;20022;-72
2022/04/24 10:45:49;;;;;;;10.68;7.85;;;;;;;;;;4405966;32;20453;-71
2022/04/24 10:48:15;;;;;;;12.00;8.25;;;;;;;;;;4406056;32;20075;-72
2022/04/24 10:50:47;;;;;;;10.07;8.32;;;;;;;;;;4403236;32;20478;-72
2022/04/24 10:53:12;;;;;;;12.65;7.80;;;;;;;;;;4404680;32;20023;-72
2022/04/24 10:55:37;;;;;;;10.40;8.82;;;;;;;;;;4404722;32;20052;-72
2022/04/24 10:58:04;;;;;;;12.05;9.05;;;;;;;;;;4417464;32;20427;-71
2022/04/24 11:00:32;;;;;;;15.57;9.07;;;;;;;;;;4407808;32;20052;-72
2022/04/24 11:03:14;;;;;;;13.62;9.02;;;;;;;;;;4408373;32;20069;-72
2022/04/24 11:05:43;;;;;;;11.88;7.72;;;;;;;;;;4420767;32;20116;-72
2022/04/24 11:08:09;;;;;;;13.13;8.15;;;;;;;;;;4421261;32;20407;-71
2022/04/24 11:10:38;;;;;;;10.95;8.27;;;;;;;;;;4422056;32;20026;-71
2022/04/24 11:13:04;;;;;;;13.55;8.13;;;;;;;;;;4423824;32;20475;-72
2022/04/24 11:15:29;;;;;;;10.15;8.65;;;;;;;;;;4422959;32;20064;-73
2022/04/24 11:17:54;;;;;;;10.63;8.88;;;;;;;;;;4423171;32;20369;-72
2022/04/24 11:20:19;;;;;;;10.10;8.30;;;;;;;;;;4422396;32;20034;-73
2022/04/24 11:22:46;;;;;;;10.20;8.33;;;;;;;;;;4423716;32;20241;-70
2022/04/24 11:25:16;;;;;;;11.30;7.35;;;;;;;;;;4424559;32;20257;-71
2022/04/24 11:27:42;;;;;;;10.73;7.47;;;;;;;;;;4424492;32;20017;-72
2022/04/24 11:30:17;;;;;;;9.50;7.40;;;;;;;;;;4429759;32;20077;-71
2022/04/24 11:32:53;;;;;;;13.45;7.68;;;;;;;;;;4426487;32;20022;-71
2022/04/24 11:35:18;;;;;;;10.05;7.35;;;;;;;;;;4434594;32;20059;-71
2022/04/24 11:37:44;;;;;;;18.87;8.55;;;;;;;;;;4442494;32;20013;-71
2022/04/24 11:40:09;;;;;;;8.25;7.43;;;;;;;;;;4431701;32;20026;-71
2022/04/24 11:42:34;;;;;;;8.55;7.65;;;;;;;;;;4423135;32;20049;-72
2022/04/24 11:50:46;;;;;;;10.18;7.45;;;;;;;;;;4422477;32;20075;-71
2022/04/24 11:53:12;;;;;;;12.02;6.95;;;;;;;;;;4422881;32;20026;-72
2022/04/24 11:58:23;;;;;;;12.35;6.85;;;;;;;;;;4423374;32;20067;-73
2022/04/24 12:00:48;;;;;;;12.45;7.60;;;;;;;;;;4423186;32;20052;-73
2022/04/24 12:03:14;;;;;;;9.60;7.53;;;;;;;;;;4421257;32;20038;-72
2022/04/24 12:05:41;;;;;;;9.45;6.78;;;;;;;;;;4423978;32;20156;-72
2022/04/24 12:08:07;;;;;;;8.70;6.65;;;;;;;;;;4423052;32;20392;-73
2022/04/24 12:10:32;;;;;;;9.90;6.40;;;;;;;;;;4423262;32;20026;-73
2022/04/24 12:13:04;;;;;;;11.40;6.07;;;;;;;;;;4424250;32;20051;-72
2022/04/24 12:15:29;;;;;;;8.13;5.78;;;;;;;;;;4422780;32;20019;-73
2022/04/24 12:17:56;;;;;;;6.93;5.90;;;;;;;;;;4421878;32;20403;-72
2022/04/24 12:20:22;;;;;;;7.45;5.55;;;;;;;;;;4422371;32;20018;-73
2022/04/24 12:22:47;;;;;;;9.90;5.20;;;;;;;;;;4423043;32;20072;-73
2022/04/24 12:25:17;;;;;;;6.65;5.68;;;;;;;;;;4423317;32;20049;-72
2022/04/24 12:27:52;;;;;;;9.85;4.60;;;;;;;;;;4420803;32;20022;-72
2022/04/24 12:30:17;;;;;;;5.70;4.70;;;;;;;;;;4422240;32;20113;-71
2022/04/24 12:32:43;;;;;;;8.43;4.67;;;;;;;;;;4421195;32;20022;-73
2022/04/24 12:35:08;;;;;;;5.97;4.43;;;;;;;;;;4421638;32;20117;-72
2022/04/24 12:37:34;;;;;;;7.68;4.60;;;;;;;;;;4420304;32;20161;-73
2022/04/24 12:40:00;;;;;;;6.82;5.18;;;;;;;;;;4422116;32;20038;-73
2022/04/24 12:42:25;;;;;;;6.43;4.57;;;;;;;;;;4420445;32;20060;-73
2022/04/24 12:44:51;;;;;;;6.32;4.35;;;;;;;;;;4420205;32;20063;-72
2022/04/24 12:47:17;;;;;;;10.70;4.43;;;;;;;;;;4420984;32;20308;-73
2022/04/24 12:49:44;;;;;;;4.32;3.37;;;;;;;;;;4421592;32;20305;-72
2022/04/24 12:52:09;;;;;;;9.45;3.92;;;;;;;;;;4421544;32;20037;-73
2022/04/24 12:54:35;;;;;;;6.53;3.37;;;;;;;;;;4421117;32;20018;-74
2022/04/24 12:57:00;;;;;;;6.28;3.87;;;;;;;;;;4421267;32;20014;-71
2022/04/24 12:59:25;;;;;;;6.50;3.37;;;;;;;;;;4422085;32;20309;-71
2022/04/24 13:01:52;;;;;;;7.00;3.75;;;;;;;;;;4421436;32;20071;-72
2022/04/24 13:04:17;;;;;;;6.75;3.75;;;;;;;;;;4421302;32;20493;-72
2022/04/24 13:06:42;;;;;;;4.40;3.17;;;;;;;;;;4422478;32;20018;-72
2022/04/24 13:09:09;;;;;;;8.87;3.20;;;;;;;;;;4421219;32;20331;-72
2022/04/24 13:11:35;;;;;;;4.97;3.80;;;;;;;;;;4405961;32;20141;-72
2022/04/24 13:14:00;;;;;;;10.68;3.85;;;;;;;;;;4407037;32;20046;-72
2022/04/24 13:19:09;;;;;;;10.15;3.28;;;;;;;;;;4406192;32;20387;-72
2022/04/24 13:21:35;;;;;;;3.55;2.83;;;;;;;;;;4406437;32;20022;-72
2022/04/24 13:24:00;;;;;;;4.22;3.10;;;;;;;;;;4407877;32;20042;-73
2022/04/24 13:26:26;;;;;;;11.40;3.97;;;;;;;;;;4419552;32;20044;-73
2022/04/24 13:28:51;;;;;;;6.22;3.42;;;;;;;;;;4420872;32;20021;-73
2022/04/24 13:31:16;;;;;;;4.53;3.05;;;;;;;;;;4419275;32;20055;-72
2022/04/24 13:33:41;;;;;;;5.95;3.33;;;;;;;;;;4421323;32;20366;-71
2022/04/24 13:36:07;;;;;;;6.27;3.40;;;;;;;;;;4421194;32;20049;-72
2022/04/24 13:38:32;;;;;;;5.97;3.87;;;;;;;;;;4420641;32;20129;-72
2022/04/24 13:41:00;;;;;;;6.30;2.92;;;;;;;;;;4418993;32;20145;-71
2022/04/24 13:43:27;;;;;;;6.25;3.22;;;;;;;;;;4421636;32;20067;-73
2022/04/24 13:45:53;;;;;;;6.28;3.40;;;;;;;;;;4419953;32;20040;-72
2022/04/24 13:48:19;;;;;;;5.05;3.35;;;;;;;;;;4420598;32;20351;-72
2022/04/24 13:50:44;;;;;;;7.60;3.62;;;;;;;;;;4415720;32;20037;-71
2022/04/24 13:53:09;;;;;;;7.55;3.80;;;;;;;;;;4420832;32;20068;-71
2022/04/24 13:55:35;;;;;;;6.18;3.60;;;;;;;;;;4420714;32;20146;-71
2022/04/24 13:58:02;;;;;;;6.00;3.17;;;;;;;;;;4421873;32;20056;-72
2022/04/24 14:00:27;;;;;;;7.47;3.00;;;;;;;;;;4420413;32;20045;-72
2022/04/24 14:02:52;;;;;;;7.72;3.30;;;;;;;;;;4420197;32;20075;-72
2022/04/24 14:05:18;;;;;;;8.15;3.25;;;;;;;;;;4418531;32;20022;-72
2022/04/24 14:07:44;;;;;;;6.68;3.00;;;;;;;;;;4421141;32;20396;-72
2022/04/24 14:10:09;;;;;;;7.62;3.00;;;;;;;;;;4421424;32;20075;-72
2022/04/24 14:12:35;;;;;;;5.10;2.78;;;;;;;;;;4418942;32;20022;-71
2022/04/24 14:15:00;;;;;;;10.52;3.33;;;;;;;;;;4420106;32;20014;-71
2022/04/24 14:17:26;;;;;;;7.60;3.10;;;;;;;;;;4419571;32;20356;-71
2022/04/24 14:19:51;;;;;;;7.37;3.00;;;;;;;;;;4420313;32;20013;-73
2022/04/24 14:22:17;;;;;;;7.68;2.95;;;;;;;;;;4421070;32;20051;-72
2022/04/24 14:24:42;;;;;;;8.93;3.10;;;;;;;;;;4420507;32;20355;-72
2022/04/24 14:27:07;;;;;;;8.80;2.85;;;;;;;;;;4419351;32;20053;-72
2022/04/24 14:29:33;;;;;;;13.10;3.75;;;;;;;;;;4419099;32;20018;-72
2022/04/24 14:31:58;;;;;;;4.30;2.95;;;;;;;;;;4419027;32;20038;-71
2022/04/24 14:34:24;;;;;;;10.55;2.83;;;;;;;;;;4418625;32;20069;-73
2022/04/24 14:36:50;;;;;;;7.97;3.00;;;;;;;;;;4419632;32;20034;-72
2022/04/24 14:39:15;;;;;;;8.18;2.85;;;;;;;;;;4419887;32;20404;-73
2022/04/24 14:41:41;;;;;;;4.75;2.35;;;;;;;;;;4420337;32;20026;-73
2022/04/24 14:44:06;;;;;;;5.68;2.10;;;;;;;;;;4419768;32;20415;-74
2022/04/24 14:57:28;;;;;;;8.85;2.67;;;;;;;;;;4421761;32;20170;-74
2022/04/24 14:59:57;;;;;;;7.10;2.85;;;;;;;;;;4421612;32;20021;-71
2022/04/24 15:02:23;;;;;;;6.65;2.85;;;;;;;;;;4419708;32;20439;-72
2022/04/24 15:04:48;;;;;;;8.23;2.92;;;;;;;;;;4420052;32;20037;-72
2022/04/24 15:07:13;;;;;;;9.93;3.30;;;;;;;;;;4421140;32;20018;-72
2022/04/24 15:09:38;;;;;;;9.80;2.97;;;;;;;;;;4420214;32;20434;-72
2022/04/24 15:12:04;;;;;;;6.68;2.60;;;;;;;;;;4421138;32;20053;-72
2022/04/24 15:14:30;;;;;;;6.07;2.78;;;;;;;;;;4419573;32;20079;-73
2022/04/24 15:16:55;;;;;;;14.50;3.00;;;;;;;;;;4418463;32;20034;-72
2022/04/24 15:19:21;;;;;;;11.73;3.08;;;;;;;;;;4420753;32;20418;-72